This is the latest recevied weather packets stored in our database for station/object KG5RGN-13. If no packets are shown the sender has not sent any weather packets the latest 1 day(s).
| Time | Temp. | Humidity | Pressure | Rain* | Wind** | Luminosity | Snow |
|---|---|---|---|---|---|---|---|
| 1836274828 | 18.89° C | 100% | 0 hPa | 0 mm | 0 m/s | - | - |
| 1836274528 | 19.44° C | 100% | 0 hPa | 0 mm | 0 m/s | - | - |
| 1836274378 | 18.89° C | 100% | 0 hPa | 0 mm | 0 m/s | - | - |
| 1836274228 | 18.89° C | 100% | 0 hPa | 0 mm | 0 m/s | - | - |
| 1836273928 | 18.89° C | 100% | 0 hPa | 0 mm | 0 m/s | - | - |
| 1778060558 | 5.56° C | 100% | 0 hPa | 0 mm | 1.34 m/s, 140° | - | - |
| 1778060258 | 6.11° C | 100% | 0 hPa | 0 mm | 2.24 m/s, 167° | - | - |
| 1778059958 | 6.11° C | 100% | 0 hPa | 0 mm | 2.24 m/s, 170° | - | - |
| 1778059658 | 6.11° C | 100% | 0 hPa | 0 mm | 2.24 m/s, 158° | - | - |
| 1778059358 | 5.56° C | 100% | 0 hPa | 0 mm | 1.79 m/s, 143° | - | - |
| 1778059058 | 6.11° C | 100% | 0 hPa | 0 mm | 0 m/s | - | - |
| 1778058758 | 5.56° C | 100% | 0 hPa | 0 mm | 0 m/s | - | - |
| 1778058458 | 6.11° C | 100% | 0 hPa | 0 mm | 0 m/s | - | - |
| 1778058158 | 6.11° C | 100% | 0 hPa | 0 mm | 1.34 m/s, 123° | - | - |
| 1778057858 | 5.56° C | 100% | 0 hPa | 0 mm | 0 m/s | - | - |
| 1778057558 | 6.11° C | 100% | 0 hPa | 0 mm | 2.24 m/s, 136° | - | - |
| 1778057258 | 6.11° C | 100% | 0 hPa | 0 mm | 1.79 m/s, 180° | - | - |
| 1778056958 | 6.11° C | 100% | 0 hPa | 0 mm | 1.34 m/s, 113° | - | - |
| 1778056658 | 6.11° C | 100% | 0 hPa | 0 mm | 2.68 m/s, 151° | - | - |
| 1778056358 | 6.11° C | 100% | 0 hPa | 0 mm | 2.24 m/s, 189° | - | - |
| 1778056058 | 6.11° C | 100% | 0 hPa | 0 mm | 1.79 m/s, 161° | - | - |
| 1778055758 | 6.67° C | 100% | 0 hPa | 0 mm | 2.68 m/s, 144° | - | - |
| 1778055458 | 6.67° C | 100% | 0 hPa | 0 mm | 2.68 m/s, 150° | - | - |
| 1778055158 | 6.67° C | 100% | 0 hPa | 0 mm | 1.34 m/s, 127° | - | - |
| 1778054858 | 6.67° C | 100% | 0 hPa | 0 mm | 2.68 m/s, 170° | - | - |
* Rain latest hour (hover to see other rain measurements)
** Current wind speed in m/s (hover to see current wind gust speed)